Weather History for Hurlburt Field, FL

Change the Weather History Date:

Saturday, November 3, 2012

  Actual Average Record
Temperature  
Mean Temperature 68 °F -  
Max Temperature 79 °F 73 °F 86 °F (2003)
Min Temperature 57 °F 53 °F 37 °F (1996)
Cooling Degree Days 2    
Growing Degree Days 18 (Base 50)    
Moisture  
Dew Point 62 °F    
Average Humidity 96    
Maximum Humidity 100    
Minimum Humidity 69    
Precipitation  
Precipitation 0.00 in - - ()
Sea Level Pressure  
Sea Level Pressure 30.09 in    
Wind  
Wind Speed 2 mph (West)    
Max Wind Speed 13 mph    
Max Gust Speed -    
Visibility 4 miles    
Events Fog , Rain    
Averages and records for this station are not official NWS values.
T = Trace of Precipitation, MM = Missing Value Source: NWS Daily Summary

Daily Weather History Graph

Daily Weather History Graph

Search for Another Location

Airport:

Trip Planner

Search our weather history database for the weather conditions in past years. The results will help you decide how hot, cold, wet, or windy it might be!

Date:

Astronomy

Nov. 03, 2012 Rise Set
Actual Time 7:03 AM CDT 5:57 PM CDT
Civil Twilight 6:38 AM CDT 6:21 PM CDT
Nautical Twilight 6:09 AM CDT 6:50 PM CDT
Astronomical Twilight 5:41 AM CDT 7:18 PM CDT
Moon 9:44 PM CDT (11/3) 10:59 AM CDT (11/3)
Length of Visible Light 11h 43m
Length of Day
10h 53m
Waning Gibbous, 80% of the Moon is Illuminated
Nov 3
Waning Gibbous
Nov 6
Last Quarter
Nov 13
New
Nov 20
First Quarter
Nov 28
Full

Hourly Weather History & Observations

Time (CDT) Temp. Dew Point Humidity Pressure Visibility Wind Dir Wind Speed Gust Speed Precip Events Conditions
12:55 AM 67.3 °F 66.7 °F 98% 30.05 in 10.0 mi WNW 5.8 mph - N/A   Clear
1:55 AM 66.2 °F 65.8 °F 99% 30.05 in 9.0 mi West 3.5 mph - N/A   Clear
2:55 AM 66.4 °F 66.0 °F 99% 30.05 in 10.0 mi WNW 4.6 mph - N/A   Clear
3:55 AM 66.0 °F 66.0 °F 100% 30.06 in 10.0 mi West 4.6 mph - N/A   Clear
4:55 AM 64.0 °F 63.7 °F 99% 30.07 in 8.0 mi Calm Calm - N/A   Clear
5:12 AM 62.6 °F 60.8 °F 94% 30.07 in 2.5 mi Calm Calm - N/A   Clear
5:14 AM 60.8 °F 60.8 °F 100% 30.07 in 1.8 mi Calm Calm - N/A   Clear
5:15 AM 60.8 °F 60.8 °F 100% 30.07 in 1.5 mi Calm Calm - N/A   Clear
5:16 AM 60.8 °F 60.8 °F 100% 30.07 in 1.2 mi Calm Calm - N/A   Clear
5:18 AM 60.8 °F 60.8 °F 100% 30.08 in 1.0 mi Calm Calm - N/A   Clear
5:19 AM 60.8 °F 59.0 °F 94% 30.08 in 0.8 mi Calm Calm - N/A   Clear
5:23 AM 59.0 °F 59.0 °F 100% 30.08 in 0.5 mi Calm Calm - N/A Fog Fog
5:27 AM 59.0 °F 59.0 °F 100% 30.08 in 0.5 mi Calm Calm - N/A Fog Fog
5:28 AM 59.0 °F 59.0 °F 100% 30.08 in 0.5 mi Calm Calm - N/A Fog Fog
5:30 AM 59.0 °F 59.0 °F 100% 30.08 in 0.5 mi Calm Calm - N/A Fog Fog
5:31 AM 59.0 °F 59.0 °F 100% 30.08 in 0.5 mi Calm Calm - N/A Fog Fog
5:33 AM 59.0 °F 59.0 °F 100% 30.08 in 0.8 mi Calm Calm - N/A   Clear
5:35 AM 59.0 °F 59.0 °F 100% 30.08 in 1.0 mi Calm Calm - N/A   Clear
5:37 AM 59.0 °F 59.0 °F 100% 30.08 in 1.2 mi Calm Calm - N/A   Clear
5:38 AM 59.0 °F 59.0 °F 100% 30.08 in 1.5 mi Calm Calm - N/A   Clear
5:40 AM 59.0 °F 59.0 °F 100% 30.08 in 1.2 mi Calm Calm - N/A   Clear
5:41 AM 59.0 °F 59.0 °F 100% 30.08 in 1.0 mi Calm Calm - N/A   Clear
5:43 AM 59.0 °F 59.0 °F 100% 30.08 in 0.8 mi Calm Calm - N/A   Clear
5:46 AM 59.0 °F 59.0 °F 100% 30.08 in 0.5 mi Calm Calm - N/A Fog Fog
5:47 AM 59.0 °F 59.0 °F 100% 30.08 in 0.5 mi Calm Calm - N/A Fog Fog
5:48 AM 59.0 °F 59.0 °F 100% 30.09 in 0.5 mi Calm Calm - N/A Fog Fog
5:55 AM 58.5 °F 58.5 °F 100% 30.09 in 0.5 mi North 3.5 mph - N/A Fog Fog
6:00 AM 57.2 °F 57.2 °F 100% 30.09 in 0.5 mi North 3.5 mph - N/A Fog Fog
6:01 AM 57.2 °F 57.2 °F 100% 30.09 in 0.5 mi North 3.5 mph - N/A Fog Fog
6:05 AM 57.2 °F 57.2 °F 100% 30.09 in 0.5 mi Calm Calm - N/A Fog Fog
6:08 AM 57.2 °F 57.2 °F 100% 30.09 in 0.5 mi Calm Calm - N/A Fog Fog
6:09 AM 57.2 °F 57.2 °F 100% 30.09 in 0.8 mi Calm Calm - N/A   Clear
6:14 AM 57.2 °F 57.2 °F 100% 30.09 in 1.0 mi Calm Calm - N/A   Clear
6:18 AM 57.2 °F 57.2 °F 100% 30.09 in 0.8 mi Calm Calm - N/A   Clear
6:25 AM 59.0 °F 59.0 °F 100% 30.09 in 0.5 mi Calm Calm - N/A Fog Fog
6:26 AM 59.0 °F 59.0 °F 100% 30.09 in 0.5 mi Calm Calm - N/A Fog Fog
6:34 AM 57.2 °F 57.2 °F 100% 30.09 in 0.5 mi Calm Calm - N/A Fog Fog
6:35 AM 57.2 °F 57.2 °F 100% 30.09 in 0.5 mi Calm Calm - N/A Fog Fog
6:51 AM 59.0 °F 59.0 °F 100% 30.10 in 0.2 mi Calm Calm - N/A Fog Fog
6:55 AM 57.9 °F 57.9 °F 100% 30.10 in 0.2 mi Calm Calm - N/A Fog Fog
6:57 AM 57.2 °F 57.2 °F 100% 30.10 in 0.2 mi Calm Calm - N/A Fog Fog
7:01 AM 57.2 °F 57.2 °F 100% 30.10 in 0.5 mi Calm Calm - N/A Fog Fog
7:25 AM 57.2 °F 57.2 °F 100% 30.11 in 0.8 mi Calm Calm - N/A   Clear
7:32 AM 57.2 °F 57.2 °F 100% 30.11 in 0.5 mi Calm Calm - N/A Fog Fog
7:34 AM 57.2 °F 57.2 °F 100% 30.12 in 0.5 mi Calm Calm - N/A Fog Fog
7:38 AM 59.0 °F 59.0 °F 100% 30.12 in 0.5 mi Calm Calm - N/A Fog Fog
7:40 AM 59.0 °F 59.0 °F 100% 30.12 in 0.5 mi Calm Calm - N/A Fog Fog
7:42 AM 59.0 °F 59.0 °F 100% 30.12 in 0.5 mi Calm Calm - N/A Fog Fog
7:44 AM 59.0 °F 59.0 °F 100% 30.12 in 0.8 mi Calm Calm - N/A   Clear
7:47 AM 59.0 °F 59.0 °F 100% 30.12 in 1.0 mi Calm Calm - N/A   Clear
7:49 AM 59.0 °F 59.0 °F 100% 30.12 in 1.2 mi Calm Calm - N/A   Clear
7:50 AM 59.0 °F 59.0 °F 100% 30.12 in 1.5 mi Calm Calm - N/A   Clear
7:51 AM 59.0 °F 59.0 °F 100% 30.12 in 1.8 mi Calm Calm - N/A   Clear
7:52 AM 60.8 °F 60.8 °F 100% 30.12 in 2.0 mi Calm Calm - N/A   Clear
7:55 AM 60.1 °F 60.1 °F 100% 30.12 in 2.5 mi Calm Calm - N/A   Clear
7:56 AM 60.8 °F 60.8 °F 100% 30.12 in 3.0 mi Calm Calm - N/A   Clear
8:45 AM 66.2 °F 66.2 °F 100% 30.12 in 10.0 mi Calm Calm - N/A   Light Drizzle
8:55 AM 67.1 °F 66.9 °F 99% 30.13 in 10.0 mi NNW 4.6 mph - 0.00 in Rain Light Rain
8:56 AM 68.0 °F 66.2 °F 94% 30.13 in 10.0 mi NNW 3.5 mph - N/A   Clear
9:55 AM 73.4 °F 68.5 °F 85% 30.13 in 10.0 mi Calm Calm - N/A   Clear
10:33 AM 78.8 °F 68.0 °F 69% 30.13 in 10.0 mi WNW 3.5 mph - N/A Rain Light Rain
10:42 AM 78.8 °F 68.0 °F 69% 30.13 in 10.0 mi Variable 4.6 mph - N/A   Clear
10:55 AM 78.8 °F 70.0 °F 74% 30.13 in 10.0 mi SW 6.9 mph - 0.00 in   Clear
11:55 AM 77.5 °F 69.3 °F 76% 30.12 in 10.0 mi SW 6.9 mph - N/A   Clear
12:14 PM 78.8 °F 69.8 °F 74% 30.11 in 10.0 mi SSW 5.8 mph - N/A   Light Drizzle
12:24 PM 78.8 °F 69.8 °F 74% 30.11 in 10.0 mi SSW 8.1 mph - N/A   Clear
12:55 PM 77.7 °F 69.3 °F 75% 30.10 in 10.0 mi SW 10.4 mph - 0.00 in   Clear
1:55 PM 77.2 °F 69.4 °F 77% 30.08 in 10.0 mi SW 12.7 mph - N/A   Clear
2:55 PM 77.4 °F 69.6 °F 77% 30.06 in 10.0 mi WSW 11.5 mph - N/A   Clear
3:55 PM 75.7 °F 70.0 °F 82% 30.06 in 10.0 mi WSW 8.1 mph - N/A   Clear
4:55 PM 74.3 °F 70.2 °F 87% 30.06 in 10.0 mi WSW 10.4 mph - N/A   Clear
5:55 PM 72.1 °F 69.4 °F 91% 30.06 in 10.0 mi WSW 5.8 mph - N/A   Clear
6:53 PM 71.6 °F 69.8 °F 94% 30.06 in 10.0 mi WSW 4.6 mph - N/A Rain Light Rain
6:55 PM 70.9 °F 70.0 °F 97% 30.06 in 10.0 mi West 6.9 mph - 0.00 in Rain Light Rain
7:02 PM 71.6 °F 69.8 °F 94% 30.07 in 10.0 mi WSW 6.9 mph - N/A   Clear
7:55 PM 70.3 °F 69.4 °F 97% 30.07 in 10.0 mi WSW 5.8 mph - 0.00 in   Clear
8:55 PM 70.2 °F 69.4 °F 98% 30.08 in 10.0 mi West 6.9 mph - N/A   Clear
9:55 PM 70.0 °F 69.4 °F 98% 30.09 in 10.0 mi West 4.6 mph - N/A   Clear
10:55 PM 69.1 °F 68.7 °F 99% 30.08 in 10.0 mi West 4.6 mph - N/A   Clear
11:55 PM 67.8 °F 67.5 °F 99% 30.08 in 10.0 mi Variable 3.5 mph - N/A   Clear